Main page
Satellite images 15-day forecastsClimateMarine weather Cyclones Lightning AirportsFAQ Newsletter About
Weather : Europe Africa North America South America Asia Australia-Oceania Others
Languages Contact

Hanover, Germany

Langenhagen

latitude: 52-28N, longitude: 009-41E, elevation: 56 m


METAR: EDDV 230550Z 28003KT CAVOK 06/05 Q1020 NOSIG
TAF: EDDV 230500Z 2306/2406 24007KT 9999 SCT040

Time: 08:19 (06:19 UTC)

Current weather observation

The report was made 29 minutes ago, at 05:50 UTC  
Wind 03 kt from the West
Temperature 6°C
Humidity 93%
Pressure 1020 hPa
Visibility 10 km or more
no clouds below 1500 m and no cumulonimbus

Change units

Forecast

The report was made 01 hour and 19 minutes ago, at 05:00 UTC  
Forecast valid from 23 at 06 UTC to 24 at 06 UTC
Wind 07 kt from the West/Southwest
Visibility 10 km or more
Scattered clouds at a height of 4000 ft
The information on this site is subject to a disclaimer
Weather : Europe Africa North America South America Asia Australia-Oceania Others
Satellite images 15-day forecastsClimateMarine weather Cyclones Lightning AirportsFAQ Languages Contact Newsletter About